Time;durP1;ratioP1;P1;durP2;ratioP2;P2;SDS_P1;SDS_P2;PMS_P1;PMS_P2;Temp;Humidity;BMP_temperature;BMP_pressure;BME280_temperature;BME280_humidity;BME280_pressure;Samples;Min_cycle;Max_cycle;Signal;HPM_P1;HPM_P2
2023/10/25 00:02:09;;;;;;;;;;;;;;;;;;4998407;28;20012;-76
2023/10/25 00:04:35;;;;;;;;;;;;;;;;;;5006653;28;19926;-77
2023/10/25 00:07:01;;;;;;;;;;;;;;;;;;5013905;28;19925;-77
2023/10/25 00:09:27;;;;;;;;;;;;;;;;;;5015127;28;19925;-77
2023/10/25 00:11:54;;;;;;;;;;;;;;;;;;5031975;28;19925;-76
2023/10/25 00:14:20;;;;;;;;;;;;;;;;;;5014725;28;19964;-77
2023/10/25 00:16:45;;;;;;;;;;;;;;;;;;5023380;28;19975;-77
2023/10/25 00:19:11;;;;;;;;;;;;;;;;;;5014451;28;19925;-76
2023/10/25 00:21:37;;;;;;;;;;;;;;;;;;5016969;28;20044;-77
2023/10/25 00:24:03;;;;;;;;;;;;;;;;;;5033760;28;20313;-76
2023/10/25 00:26:29;;;;;;;;;;;;;;;;;;5033343;28;19932;-76
2023/10/25 00:28:56;;;;;;;;;;;;;;;;;;5016334;28;19925;-78
2023/10/25 00:31:22;;;;;;;;;;;;;;;;;;5018548;28;19975;-77
2023/10/25 00:33:48;;;;;;;;;;;;;;;;;;5028546;28;20324;-76
2023/10/25 00:36:14;;;;;;;;;;;;;;;;;;5021891;28;19999;-77
2023/10/25 00:38:40;;;;;;;;;;;;;;;;;;5017788;28;19926;-78
2023/10/25 00:41:06;;;;;;;;;;;;;;;;;;5017131;28;19931;-77
2023/10/25 00:43:32;;;;;;;;;;;;;;;;;;5018515;28;19926;-77
2023/10/25 00:45:58;;;;;;;;;;;;;;;;;;5017979;28;20338;-77
2023/10/25 00:48:24;;;;;;;;;;;;;;;;;;5018453;28;19925;-77
2023/10/25 00:50:50;;;;;;;;;;;;;;;;;;5016919;28;19928;-77
2023/10/25 00:53:15;;;;;;;;;;;;;;;;;;5019631;28;19925;-77
2023/10/25 00:55:41;;;;;;;;;;;;;;;;;;5035118;28;19932;-78
2023/10/25 00:58:07;;;;;;;;;;;;;;;;;;5020353;28;19925;-77
2023/10/25 01:00:34;;;;;;;;;;;;;;;;;;5017989;28;19983;-77
2023/10/25 01:02:59;;;;;;;;;;;;;;;;;;5032716;28;19925;-77
2023/10/25 01:05:25;;;;;;;;;;;;;;;;;;5021379;28;19925;-77
2023/10/25 01:07:51;;;;;;;;;;;;;;;;;;5020143;28;19925;-77
2023/10/25 01:10:17;;;;;;;;;;;;;;;;;;5016954;28;19952;-77
2023/10/25 01:12:43;;;;;;;;;;;;;;;;;;5001658;28;20025;-81
2023/10/25 01:15:09;;;;;;;;;;;;;;;;;;5004953;28;19928;-77
2023/10/25 01:17:35;;;;;;;;;;;;;;;;;;5037413;28;19932;-77
2023/10/25 01:20:01;;;;;;;;;;;;;;;;;;5036879;28;19929;-77
2023/10/25 01:22:27;;;;;;;;;;;;;;;;;;5019472;28;19979;-76
2023/10/25 01:24:53;;;;;;;;;;;;;;;;;;5023948;28;19928;-76
2023/10/25 01:27:19;;;;;;;;;;;;;;;;;;5021122;28;20004;-77
2023/10/25 01:29:45;;;;;;;;;;;;;;;;;;5020294;28;19924;-80
2023/10/25 01:32:11;;;;;;;;;;;;;;;;;;5036635;28;19932;-77
2023/10/25 01:34:37;;;;;;;;;;;;;;;;;;5042079;28;19936;-77
2023/10/25 01:37:03;;;;;;;;;;;;;;;;;;5016497;28;19932;-77
2023/10/25 01:39:29;;;;;;;;;;;;;;;;;;5036382;28;19976;-76
2023/10/25 01:41:55;;;;;;;;;;;;;;;;;;5016271;28;20362;-77
2023/10/25 01:44:21;;;;;;;;;;;;;;;;;;5017657;28;20362;-77
2023/10/25 01:46:46;;;;;;;;;;;;;;;;;;5020282;28;20285;-80
2023/10/25 01:49:12;;;;;;;;;;;;;;;;;;5020436;28;19925;-76
2023/10/25 01:51:38;;;;;;;;;;;;;;;;;;5028660;28;19935;-76
2023/10/25 01:54:04;;;;;;;;;;;;;;;;;;5032866;28;19925;-78
2023/10/25 01:56:30;;;;;;;;;;;;;;;;;;5036187;28;19974;-76
2023/10/25 01:58:56;;;;;;;;;;;;;;;;;;5020038;28;19932;-77
2023/10/25 02:01:22;;;;;;;;;;;;;;;;;;5020631;28;19925;-77
2023/10/25 02:03:48;;;;;;;;;;;;;;;;;;5033186;28;19928;-80
2023/10/25 02:06:14;;;;;;;;;;;;;;;;;;5019743;28;19932;-76
2023/10/25 02:08:41;;;;;;;;;;;;;;;;;;5019926;28;19925;-77
2023/10/25 02:11:07;;;;;;;;;;;;;;;;;;5034632;28;20435;-76
2023/10/25 02:13:33;;;;;;;;;;;;;;;;;;5036670;28;19925;-76
2023/10/25 02:15:59;;;;;;;;;;;;;;;;;;5036371;28;19925;-76
2023/10/25 02:18:24;;;;;;;;;;;;;;;;;;5020057;28;20025;-77
2023/10/25 02:20:51;;;;;;;;;;;;;;;;;;5036290;28;19925;-79
2023/10/25 02:23:17;;;;;;;;;;;;;;;;;;5035871;28;20066;-77
2023/10/25 02:25:43;;;;;;;;;;;;;;;;;;5049929;28;19931;-76
2023/10/25 02:28:09;;;;;;;;;;;;;;;;;;5035957;28;20437;-77
2023/10/25 02:30:35;;;;;;;;;;;;;;;;;;5019804;28;19929;-77
2023/10/25 02:33:01;;;;;;;;;;;;;;;;;;5015911;28;19925;-77
2023/10/25 02:35:27;;;;;;;;;;;;;;;;;;5000037;28;19929;-76
2023/10/25 02:37:53;;;;;;;;;;;;;;;;;;5015476;28;19979;-79
2023/10/25 02:40:19;;;;;;;;;;;;;;;;;;5015289;28;20321;-77
2023/10/25 02:42:47;;;;;;;;;;;;;;;;;;5016234;28;19947;-77
2023/10/25 02:45:13;;;;;;;;;;;;;;;;;;5002333;28;20158;-76
2023/10/25 02:47:39;;;;;;;;;;;;;;;;;;5025671;28;20394;-77
2023/10/25 02:50:05;;;;;;;;;;;;;;;;;;5015247;28;19933;-76
2023/10/25 02:52:31;;;;;;;;;;;;;;;;;;5014555;28;19965;-77
2023/10/25 02:54:57;;;;;;;;;;;;;;;;;;5030194;28;19975;-77
2023/10/25 02:57:23;;;;;;;;;;;;;;;;;;5035954;28;19925;-77
2023/10/25 02:59:51;;;;;;;;;;;;;;;;;;5019381;28;19925;-76
2023/10/25 03:02:17;;;;;;;;;;;;;;;;;;5035150;28;19929;-77
2023/10/25 03:04:43;;;;;;;;;;;;;;;;;;5035838;28;19924;-76
2023/10/25 03:07:09;;;;;;;;;;;;;;;;;;5034709;28;19929;-77
2023/10/25 03:09:35;;;;;;;;;;;;;;;;;;5032025;28;20385;-77
2023/10/25 03:12:01;;;;;;;;;;;;;;;;;;5034457;28;19925;-77
2023/10/25 03:14:27;;;;;;;;;;;;;;;;;;5035762;28;19929;-76
2023/10/25 03:16:53;;;;;;;;;;;;;;;;;;5015575;28;19948;-77
2023/10/25 03:19:19;;;;;;;;;;;;;;;;;;5015006;28;19925;-77
2023/10/25 03:21:45;;;;;;;;;;;;;;;;;;5014949;28;19976;-77
2023/10/25 03:24:11;;;;;;;;;;;;;;;;;;5024117;28;19924;-77
2023/10/25 03:26:37;;;;;;;;;;;;;;;;;;5034075;28;19951;-76
2023/10/25 03:29:02;;;;;;;;;;;;;;;;;;5027368;28;19925;-77
2023/10/25 03:31:28;;;;;;;;;;;;;;;;;;5014605;28;19925;-77
2023/10/25 03:33:55;;;;;;;;;;;;;;;;;;5015188;28;19979;-77
2023/10/25 03:36:21;;;;;;;;;;;;;;;;;;5014291;28;19936;-77
2023/10/25 03:38:47;;;;;;;;;;;;;;;;;;5015138;28;19929;-77
2023/10/25 03:41:13;;;;;;;;;;;;;;;;;;5027530;28;19978;-76
2023/10/25 03:43:39;;;;;;;;;;;;;;;;;;5035003;28;19931;-76
2023/10/25 03:46:04;;;;;;;;;;;;;;;;;;5017900;28;19926;-77
2023/10/25 03:48:30;;;;;;;;;;;;;;;;;;5015133;28;20011;-77
2023/10/25 03:50:57;;;;;;;;;;;;;;;;;;5014407;28;19925;-77
2023/10/25 03:53:22;;;;;;;;;;;;;;;;;;5016508;28;19944;-77
2023/10/25 03:55:48;;;;;;;;;;;;;;;;;;5034017;28;19924;-77
2023/10/25 03:58:14;;;;;;;;;;;;;;;;;;5034387;28;19932;-77
2023/10/25 04:00:40;;;;;;;;;;;;;;;;;;5034925;28;19968;-77
2023/10/25 04:03:06;;;;;;;;;;;;;;;;;;5016109;28;19929;-76
2023/10/25 04:05:32;;;;;;;;;;;;;;;;;;5013912;28;19931;-77
2023/10/25 04:07:58;;;;;;;;;;;;;;;;;;5014076;28;19925;-77
2023/10/25 04:10:24;;;;;;;;;;;;;;;;;;5021724;28;19987;-76
2023/10/25 04:12:51;;;;;;;;;;;;;;;;;;5014892;28;19925;-77
2023/10/25 04:15:17;;;;;;;;;;;;;;;;;;4998233;28;20342;-76
2023/10/25 04:17:43;;;;;;;;;;;;;;;;;;5027097;28;20046;-77
2023/10/25 04:20:09;;;;;;;;;;;;;;;;;;5017198;28;19935;-76
2023/10/25 04:22:35;;;;;;;;;;;;;;;;;;5033981;28;20012;-77
2023/10/25 04:25:01;;;;;;;;;;;;;;;;;;5033576;28;19928;-77
2023/10/25 04:27:27;;;;;;;;;;;;;;;;;;5014272;28;19933;-77
2023/10/25 04:29:53;;;;;;;;;;;;;;;;;;5013304;28;19925;-76
2023/10/25 04:32:19;;;;;;;;;;;;;;;;;;5016334;28;19964;-77
2023/10/25 04:34:45;;;;;;;;;;;;;;;;;;5034323;28;19925;-76
2023/10/25 04:37:11;;;;;;;;;;;;;;;;;;5033259;28;19932;-76
2023/10/25 04:39:37;;;;;;;;;;;;;;;;;;5021465;28;19929;-77
2023/10/25 04:42:03;;;;;;;;;;;;;;;;;;5014032;28;20359;-77
2023/10/25 04:44:29;;;;;;;;;;;;;;;;;;5031655;28;19968;-76
2023/10/25 04:46:55;;;;;;;;;;;;;;;;;;5026885;28;20345;-76
2023/10/25 04:49:21;;;;;;;;;;;;;;;;;;5051128;28;19925;-77
2023/10/25 04:51:47;;;;;;;;;;;;;;;;;;5016847;28;19928;-76
2023/10/25 04:54:13;;;;;;;;;;;;;;;;;;5012871;28;19948;-77
2023/10/25 04:56:39;;;;;;;;;;;;;;;;;;5030410;28;19925;-76
2023/10/25 04:59:04;;;;;;;;;;;;;;;;;;5034121;28;19931;-76
2023/10/25 05:01:30;;;;;;;;;;;;;;;;;;5033350;28;19925;-77
2023/10/25 05:03:56;;;;;;;;;;;;;;;;;;5033837;28;19928;-76
2023/10/25 05:06:22;;;;;;;;;;;;;;;;;;5032771;28;19925;-77
2023/10/25 05:08:48;;;;;;;;;;;;;;;;;;5017079;28;19932;-76
2023/10/25 05:11:15;;;;;;;;;;;;;;;;;;5015377;28;19925;-77
2023/10/25 05:13:41;;;;;;;;;;;;;;;;;;5033876;28;19925;-76
2023/10/25 05:16:07;;;;;;;;;;;;;;;;;;5025451;28;19925;-76
2023/10/25 05:18:33;;;;;;;;;;;;;;;;;;5017286;28;19925;-76
2023/10/25 05:20:59;;;;;;;;;;;;;;;;;;5017649;28;20381;-76
2023/10/25 05:23:25;;;;;;;;;;;;;;;;;;5016688;28;19925;-76
2023/10/25 05:25:51;;;;;;;;;;;;;;;;;;5015664;28;19975;-77
2023/10/25 05:28:17;;;;;;;;;;;;;;;;;;5029064;28;19929;-76
2023/10/25 05:30:43;;;;;;;;;;;;;;;;;;5037348;28;20034;-76
2023/10/25 05:33:09;;;;;;;;;;;;;;;;;;5025618;28;19935;-76
2023/10/25 05:35:35;;;;;;;;;;;;;;;;;;5017044;28;19929;-76
2023/10/25 05:38:03;;;;;;;;;;;;;;;;;;5016891;28;19987;-76
2023/10/25 05:40:29;;;;;;;;;;;;;;;;;;5034951;28;20382;-76
2023/10/25 05:42:55;;;;;;;;;;;;;;;;;;5020716;28;19932;-78
2023/10/25 05:45:21;;;;;;;;;;;;;;;;;;5036620;28;20362;-76
2023/10/25 05:47:47;;;;;;;;;;;;;;;;;;5035484;28;20389;-77
2023/10/25 05:50:13;;;;;;;;;;;;;;;;;;5023304;28;19925;-77
2023/10/25 05:52:44;;;;;;;;;;;;;;;;;;5033349;28;19932;-78
2023/10/25 05:55:10;;;;;;;;;;;;;;;;;;5016223;28;19925;-76
2023/10/25 05:57:36;;;;;;;;;;;;;;;;;;5016768;28;19947;-76
2023/10/25 06:00:01;;;;;;;;;;;;;;;;;;5000720;28;19925;-76
2023/10/25 06:02:27;;;;;;;;;;;;;;;;;;5016501;28;19925;-76
2023/10/25 06:04:53;;;;;;;;;;;;;;;;;;5032548;28;19971;-76
2023/10/25 06:07:19;;;;;;;;;;;;;;;;;;5019114;28;19975;-77
2023/10/25 06:09:45;;;;;;;;;;;;;;;;;;5027083;28;19925;-76
2023/10/25 06:12:11;;;;;;;;;;;;;;;;;;5036561;28;19948;-79
2023/10/25 06:14:37;;;;;;;;;;;;;;;;;;5036230;28;20066;-76
2023/10/25 06:17:03;;;;;;;;;;;;;;;;;;5016250;28;19931;-76
2023/10/25 06:19:29;;;;;;;;;;;;;;;;;;5028266;28;19928;-77
2023/10/25 06:21:55;;;;;;;;;;;;;;;;;;5026693;28;20024;-78
2023/10/25 06:24:21;;;;;;;;;;;;;;;;;;5026446;28;19925;-78
2023/10/25 06:26:47;;;;;;;;;;;;;;;;;;5025314;28;19932;-78
2023/10/25 06:29:13;;;;;;;;;;;;;;;;;;5027194;28;20395;-77
2023/10/25 06:31:39;;;;;;;;;;;;;;;;;;5030707;28;20494;-76
2023/10/25 06:34:05;;;;;;;;;;;;;;;;;;5028434;28;20016;-77
2023/10/25 06:36:31;;;;;;;;;;;;;;;;;;5026628;28;20004;-77
2023/10/25 06:38:57;;;;;;;;;;;;;;;;;;5007895;28;19929;-78
2023/10/25 06:41:23;;;;;;;;;;;;;;;;;;5004670;28;19932;-78
2023/10/25 06:43:49;;;;;;;;;;;;;;;;;;5008858;28;20303;-79
2023/10/25 06:46:15;;;;;;;;;;;;;;;;;;5046113;28;19928;-79
2023/10/25 06:48:41;;;;;;;;;;;;;;;;;;5006094;28;20411;-74
2023/10/25 06:51:07;;;;;;;;;;;;;;;;;;5028925;28;20314;-78
2023/10/25 06:53:33;;;;;;;;;;;;;;;;;;5014845;28;19925;-78
2023/10/25 06:55:59;;;;;;;;;;;;;;;;;;5026275;28;19932;-77
2023/10/25 06:58:25;;;;;;;;;;;;;;;;;;5025699;28;19932;-78
2023/10/25 07:00:50;;;;;;;;;;;;;;;;;;5023900;28;19925;-77
2023/10/25 07:03:16;;;;;;;;;;;;;;;;;;5023339;28;19928;-76
2023/10/25 07:05:43;;;;;;;;;;;;;;;;;;5015473;28;19925;-77
2023/10/25 07:08:08;;;;;;;;;;;;;;;;;;5050181;28;20015;-77
2023/10/25 07:10:34;;;;;;;;;;;;;;;;;;5022464;28;20024;-78
2023/10/25 07:13:00;;;;;;;;;;;;;;;;;;5031541;28;19925;-76
2023/10/25 07:15:26;;;;;;;;;;;;;;;;;;5017425;28;19937;-77
2023/10/25 07:17:52;;;;;;;;;;;;;;;;;;5009621;28;19924;-76
2023/10/25 07:20:18;;;;;;;;;;;;;;;;;;5024228;28;19925;-76
2023/10/25 07:22:44;;;;;;;;;;;;;;;;;;5023530;28;20112;-77
2023/10/25 07:25:10;;;;;;;;;;;;;;;;;;5033544;28;20394;-77
2023/10/25 07:27:37;;;;;;;;;;;;;;;;;;5017863;28;19929;-78
2023/10/25 07:30:03;;;;;;;;;;;;;;;;;;5035297;28;19972;-79
2023/10/25 07:32:30;;;;;;;;;;;;;;;;;;5022608;28;19979;-79
2023/10/25 07:34:56;;;;;;;;;;;;;;;;;;5025570;28;19931;-78
2023/10/25 07:37:22;;;;;;;;;;;;;;;;;;5014480;28;19925;-78
2023/10/25 07:39:49;;;;;;;;;;;;;;;;;;5043508;28;19925;-78
2023/10/25 07:42:15;;;;;;;;;;;;;;;;;;5023479;28;19982;-77
2023/10/25 07:44:41;;;;;;;;;;;;;;;;;;5024502;28;19924;-78
2023/10/25 07:47:06;;;;;;;;;;;;;;;;;;5025974;28;19928;-78
2023/10/25 07:49:32;;;;;;;;;;;;;;;;;;5022627;28;19932;-78
2023/10/25 07:51:58;;;;;;;;;;;;;;;;;;5010704;28;19932;-78
2023/10/25 07:54:24;;;;;;;;;;;;;;;;;;5043066;28;19924;-77
2023/10/25 07:56:50;;;;;;;;;;;;;;;;;;5015947;28;19932;-78
2023/10/25 07:59:16;;;;;;;;;;;;;;;;;;5026659;28;20204;-78
2023/10/25 08:01:42;;;;;;;;;;;;;;;;;;5027372;28;19925;-78
2023/10/25 08:04:08;;;;;;;;;;;;;;;;;;5024817;28;19990;-77
2023/10/25 08:06:34;;;;;;;;;;;;;;;;;;5025970;28;19929;-78
2023/10/25 08:09:00;;;;;;;;;;;;;;;;;;5024169;28;19962;-78
2023/10/25 08:11:26;;;;;;;;;;;;;;;;;;5020926;28;19926;-78
2023/10/25 08:13:52;;;;;;;;;;;;;;;;;;5025845;28;19978;-78
2023/10/25 08:16:18;;;;;;;;;;;;;;;;;;5045256;28;19929;-78
2023/10/25 08:18:44;;;;;;;;;;;;;;;;;;5007813;28;20440;-78
2023/10/25 08:21:10;;;;;;;;;;;;;;;;;;5027505;28;20425;-79
2023/10/25 08:23:37;;;;;;;;;;;;;;;;;;5026518;28;19980;-78
2023/10/25 08:26:04;;;;;;;;;;;;;;;;;;5014356;28;19925;-78
2023/10/25 08:28:29;;;;;;;;;;;;;;;;;;5020223;28;19925;-78
2023/10/25 08:30:55;;;;;;;;;;;;;;;;;;5019294;28;19933;-78
2023/10/25 08:33:21;;;;;;;;;;;;;;;;;;5020638;28;19971;-78
2023/10/25 08:35:47;;;;;;;;;;;;;;;;;;5005189;28;19936;-78
2023/10/25 08:38:14;;;;;;;;;;;;;;;;;;5019614;28;19968;-78
2023/10/25 08:40:40;;;;;;;;;;;;;;;;;;5032625;28;20037;-78
2023/10/25 08:43:07;;;;;;;;;;;;;;;;;;5034284;28;20156;-78
2023/10/25 08:45:36;;;;;;;;;;;;;;;;;;5038715;28;19925;-78
2023/10/25 08:48:02;;;;;;;;;;;;;;;;;;5053036;28;20357;-78
2023/10/25 08:50:28;;;;;;;;;;;;;;;;;;5031263;28;20289;-79
2023/10/25 08:52:54;;;;;;;;;;;;;;;;;;5035532;28;20015;-78
2023/10/25 08:55:20;;;;;;;;;;;;;;;;;;5019554;28;20401;-78
2023/10/25 08:57:53;;;;;;;;;;;;;;;;;;5034341;28;19931;-78
2023/10/25 09:00:19;;;;;;;;;;;;;;;;;;5035947;28;19931;-79
2023/10/25 09:02:45;;;;;;;;;;;;;;;;;;5026160;28;20285;-78
2023/10/25 09:05:11;;;;;;;;;;;;;;;;;;5024457;28;19932;-80
2023/10/25 09:07:37;;;;;;;;;;;;;;;;;;5033221;28;20370;-83
2023/10/25 09:10:03;;;;;;;;;;;;;;;;;;5027531;28;19933;-78
2023/10/25 09:12:29;;;;;;;;;;;;;;;;;;5016465;28;20434;-79
2023/10/25 09:14:55;;;;;;;;;;;;;;;;;;5033684;28;19924;-78
2023/10/25 09:17:21;;;;;;;;;;;;;;;;;;5050176;28;20011;-79
2023/10/25 09:19:47;;;;;;;;;;;;;;;;;;5033476;28;19928;-79
2023/10/25 09:22:13;;;;;;;;;;;;;;;;;;5034674;28;19928;-78
2023/10/25 09:24:39;;;;;;;;;;;;;;;;;;5030094;28;20150;-83
2023/10/25 09:27:05;;;;;;;;;;;;;;;;;;5011170;28;20049;-79
2023/10/25 09:29:35;;;;;;;;;;;;;;;;;;5027009;28;19932;-79
2023/10/25 09:32:01;;;;;;;;;;;;;;;;;;5027198;28;19936;-79
2023/10/25 09:34:27;;;;;;;;;;;;;;;;;;5029118;28;19929;-79
2023/10/25 09:36:53;;;;;;;;;;;;;;;;;;5015157;28;19935;-78
2023/10/25 09:40:37;;;;;;;10.32;4.88;;;;;;;;;;5109960;27;1991867;-77
2023/10/25 09:43:07;;;;;;;8.05;4.63;;;;;;;;;;5148201;27;20082;-78
2023/10/25 09:45:34;;;;;;;11.18;5.50;;;;;;;;;;5150910;27;20038;-77
2023/10/25 09:48:03;;;;;;;11.00;4.75;;;;;;;;;;5149990;27;20383;-77
2023/10/25 09:50:32;;;;;;;9.77;5.07;;;;;;;;;;5143757;27;20394;-77
2023/10/25 09:53:08;;;;;;;10.48;5.05;;;;;;;;;;5130558;27;20046;-77
2023/10/25 09:55:35;;;;;;;9.43;4.40;;;;;;;;;;5129275;27;20476;-77
2023/10/25 09:58:02;;;;;;;8.77;4.72;;;;;;;;;;5134575;27;20404;-78
2023/10/25 10:00:29;;;;;;;9.20;4.85;;;;;;;;;;5129908;27;20049;-77
2023/10/25 10:03:00;;;;;;;10.20;4.90;;;;;;;;;;5149599;27;20047;-78
2023/10/25 10:05:39;;;;;;;8.15;4.38;;;;;;;;;;5147012;27;20050;-77
2023/10/25 10:08:09;;;;;;;10.95;4.53;;;;;;;;;;5131309;27;20050;-77
2023/10/25 10:10:40;;;;;;;9.57;5.10;;;;;;;;;;5149208;27;20095;-77
2023/10/25 10:13:16;;;;;;;9.48;4.40;;;;;;;;;;5150275;27;20203;-77
2023/10/25 10:16:02;;;;;;;9.65;4.70;;;;;;;;;;5152108;27;20053;-78
2023/10/25 10:18:29;;;;;;;7.57;4.57;;;;;;;;;;5149215;27;20108;-77
2023/10/25 10:20:59;;;;;;;14.57;5.22;;;;;;;;;;5133739;27;20070;-77
2023/10/25 10:23:35;;;;;;;9.02;4.57;;;;;;;;;;5133111;27;20038;-78
2023/10/25 10:26:02;;;;;;;8.48;4.18;;;;;;;;;;5148188;27;20050;-78
2023/10/25 10:28:41;;;;;;;10.93;4.70;;;;;;;;;;5151646;27;20095;-78
2023/10/25 10:31:08;;;;;;;7.82;4.20;;;;;;;;;;5148189;27;20053;-78
2023/10/25 10:33:41;;;;;;;9.45;4.32;;;;;;;;;;5151660;27;20042;-78
2023/10/25 10:36:07;;;;;;;6.65;3.70;;;;;;;;;;5151410;27;20510;-77
2023/10/25 10:38:33;;;;;;;;;;;;;;;;;;5151479;27;20448;-78
2023/10/25 10:41:03;;;;;;;7.72;3.80;;;;;;;;;;5149887;27;20002;-78
2023/10/25 10:43:29;;;;;;;6.85;3.50;;;;;;;;;;5151987;27;20042;-78
2023/10/25 10:45:55;;;;;;;6.60;3.83;;;;;;;;;;5151366;27;20046;-79
2023/10/25 10:48:21;;;;;;;;;;;;;;;;;;5152074;27;20039;-79
2023/10/25 10:50:47;;;;;;;7.80;4.13;;;;;;;;;;5142303;27;20454;-82
2023/10/25 10:53:14;;;;;;;8.60;4.43;;;;;;;;;;5099265;27;20544;-77
2023/10/25 10:55:40;;;;;;;8.52;3.78;;;;;;;;;;5155158;27;20122;-78
2023/10/25 10:58:07;;;;;;;7.88;3.90;;;;;;;;;;5137283;27;20420;-78
2023/10/25 11:00:33;;;;;;;7.63;3.72;;;;;;;;;;5135821;27;20091;-78
2023/10/25 11:03:03;;;;;;;6.78;3.20;;;;;;;;;;5117305;27;20505;-80
2023/10/25 11:05:31;;;;;;;9.02;3.60;;;;;;;;;;5152896;27;20049;-78
2023/10/25 11:07:57;;;;;;;7.25;3.78;;;;;;;;;;5116601;27;20070;-75
2023/10/25 11:10:23;;;;;;;7.13;3.70;;;;;;;;;;5136481;27;20083;-76
2023/10/25 11:12:50;;;;;;;;;;;;;;;;;;5156032;27;20053;-79
2023/10/25 11:15:16;;;;;;;5.47;3.38;;;;;;;;;;5137649;27;19918;-76
2023/10/25 11:17:43;;;;;;;9.40;4.03;;;;;;;;;;5134772;27;20448;-76
2023/10/25 11:20:09;;;;;;;6.35;3.22;;;;;;;;;;5146262;27;20046;-76
2023/10/25 11:22:38;;;;;;;8.85;3.67;;;;;;;;;;5136901;27;20058;-76
2023/10/25 11:25:11;;;;;;;8.77;3.88;;;;;;;;;;5118774;27;20062;-77
2023/10/25 11:27:38;;;;;;;7.22;3.60;;;;;;;;;;5086992;27;20058;-76
2023/10/25 11:30:05;;;;;;;12.23;4.22;;;;;;;;;;5116952;27;20094;-77
2023/10/25 11:32:32;;;;;;;9.68;3.70;;;;;;;;;;5113085;27;20099;-77
2023/10/25 11:34:59;;;;;;;8.30;3.72;;;;;;;;;;5129936;27;20049;-77
2023/10/25 11:37:25;;;;;;;6.38;3.50;;;;;;;;;;5118539;27;20414;-76
2023/10/25 11:39:55;;;;;;;11.07;3.70;;;;;;;;;;5117189;27;20062;-78
2023/10/25 11:42:21;;;;;;;11.90;3.85;;;;;;;;;;5119707;27;20445;-78
2023/10/25 11:44:47;;;;;;;;;;;;;;;;;;5155825;27;20049;-77
2023/10/25 11:47:20;;;;;;;8.18;3.60;;;;;;;;;;5135776;27;20002;-76
2023/10/25 11:49:51;;;;;;;10.75;3.42;;;;;;;;;;5153730;27;20479;-77
2023/10/25 11:52:20;;;;;;;8.40;3.95;;;;;;;;;;5134239;27;20050;-77
2023/10/25 11:54:46;;;;;;;8.75;3.10;;;;;;;;;;5132010;27;20045;-77
2023/10/25 11:57:12;;;;;;;;;;;;;;;;;;5115171;27;20047;-77
2023/10/25 11:59:38;;;;;;;8.85;3.70;;;;;;;;;;5136311;27;19971;-77
2023/10/25 12:02:04;;;;;;;;;;;;;;;;;;5135802;27;20463;-77
2023/10/25 12:04:30;;;;;;;7.13;3.92;;;;;;;;;;5134936;27;19954;-76
2023/10/25 12:06:56;;;;;;;;;;;;;;;;;;5118661;27;20045;-78
2023/10/25 12:09:22;;;;;;;9.85;4.10;;;;;;;;;;5133012;27;20005;-76
2023/10/25 12:11:48;;;;;;;;;;;;;;;;;;5135631;27;20053;-77
2023/10/25 12:14:14;;;;;;;10.10;4.15;;;;;;;;;;5133257;27;19919;-77
2023/10/25 12:16:40;;;;;;;;;;;;;;;;;;5135841;27;20369;-79
2023/10/25 12:19:06;;;;;;;11.07;4.53;;;;;;;;;;5134486;27;19940;-76
2023/10/25 12:21:32;;;;;;;7.03;3.75;;;;;;;;;;5133447;27;20516;-77
2023/10/25 12:23:58;;;;;;;;;;;;;;;;;;5119176;27;20066;-82
2023/10/25 12:26:24;;;;;;;7.10;3.33;;;;;;;;;;5115717;27;19966;-77
2023/10/25 12:28:50;;;;;;;11.95;4.00;;;;;;;;;;5147732;27;20039;-76
2023/10/25 12:31:16;;;;;;;;;;;;;;;;;;5115895;27;20661;-76
2023/10/25 12:33:42;;;;;;;10.98;3.67;;;;;;;;;;5118619;27;19958;-77
2023/10/25 12:36:08;;;;;;;11.18;3.97;;;;;;;;;;5150519;27;20432;-72
2023/10/25 12:38:34;;;;;;;;;;;;;;;;;;5149666;27;20043;-76
2023/10/25 12:41:00;;;;;;;8.75;3.70;;;;;;;;;;5114317;27;20299;-80
2023/10/25 12:43:26;;;;;;;;;;;;;;;;;;5154077;27;20179;-77
2023/10/25 12:45:53;;;;;;;6.80;3.00;;;;;;;;;;5132700;27;19972;-77
2023/10/25 12:48:18;;;;;;;;;;;;;;;;;;5115370;27;20112;-77
2023/10/25 12:50:45;;;;;;;7.80;3.47;;;;;;;;;;5133499;27;19937;-77
2023/10/25 12:53:10;;;;;;;;;;;;;;;;;;5111916;27;20158;-76
2023/10/25 12:55:37;;;;;;;7.18;3.53;;;;;;;;;;5134360;27;19919;-77
2023/10/25 12:58:04;;;;;;;;;;;;;;;;;;5119213;27;20051;-79
2023/10/25 13:00:30;;;;;;;4.78;2.95;;;;;;;;;;5135627;27;20017;-77
2023/10/25 13:02:56;;;;;;;6.28;3.40;;;;;;;;;;5129025;27;20051;-77
2023/10/25 13:05:22;;;;;;;;;;;;;;;;;;5098258;27;20051;-77
2023/10/25 13:07:48;;;;;;;6.22;3.20;;;;;;;;;;5114557;27;19946;-77
2023/10/25 13:10:14;;;;;;;;;;;;;;;;;;5122925;27;20047;-77
2023/10/25 13:12:41;;;;;;;8.77;3.25;;;;;;;;;;5117520;27;20290;-77
2023/10/25 13:15:07;;;;;;;9.38;3.53;;;;;;;;;;5133863;27;20042;-77
2023/10/25 13:17:33;;;;;;;8.23;3.47;;;;;;;;;;5135530;27;20051;-77
2023/10/25 13:20:02;;;;;;;;;;;;;;;;;;5152387;27;20053;-74
2023/10/25 13:22:28;;;;;;;6.13;2.75;;;;;;;;;;5120151;27;19927;-78
2023/10/25 13:24:54;;;;;;;8.57;2.80;;;;;;;;;;5113172;27;20051;-75
2023/10/25 13:27:20;;;;;;;6.95;2.70;;;;;;;;;;5130670;27;20064;-76
2023/10/25 13:29:48;;;;;;;;;;;;;;;;;;5131683;27;20050;-77
2023/10/25 13:32:14;;;;;;;5.65;2.80;;;;;;;;;;5132171;27;19923;-77
2023/10/25 13:34:40;;;;;;;5.10;2.40;;;;;;;;;;5147932;27;20043;-77
2023/10/25 13:37:06;;;;;;;;;;;;;;;;;;5132169;27;20095;-77
2023/10/25 13:39:32;;;;;;;8.45;2.75;;;;;;;;;;5131975;27;20044;-77
2023/10/25 13:41:59;;;;;;;6.68;2.92;;;;;;;;;;5113901;27;20047;-77
2023/10/25 13:44:25;;;;;;;5.95;2.72;;;;;;;;;;5130298;27;20046;-76
2023/10/25 13:46:51;;;;;;;;;;;;;;;;;;5151062;27;20179;-77
2023/10/25 13:49:17;;;;;;;5.57;2.40;;;;;;;;;;5131877;27;19994;-77
2023/10/25 13:51:43;;;;;;;;;;;;;;;;;;5127483;27;20369;-78
2023/10/25 13:54:09;;;;;;;6.75;2.47;;;;;;;;;;5134156;27;20059;-76
2023/10/25 13:56:35;;;;;;;4.57;2.47;;;;;;;;;;5132193;27;20077;-77
2023/10/25 13:59:01;;;;;;;;;;;;;;;;;;5134761;27;20123;-77
2023/10/25 14:01:27;;;;;;;4.85;2.17;;;;;;;;;;5133628;27;19988;-77
2023/10/25 14:03:53;;;;;;;3.97;2.53;;;;;;;;;;5097829;27;20548;-77
2023/10/25 14:06:21;;;;;;;3.42;2.03;;;;;;;;;;5116312;27;20557;-79
2023/10/25 14:08:48;;;;;;;7.30;2.17;;;;;;;;;;5132902;27;20038;-78
2023/10/25 14:11:14;;;;;;;;;;;;;;;;;;5097344;27;20069;-81
2023/10/25 14:13:40;;;;;;;5.32;2.75;;;;;;;;;;5129587;27;19926;-76
2023/10/25 14:16:09;;;;;;;9.13;2.97;;;;;;;;;;5117164;27;20038;-77
2023/10/25 14:18:35;;;;;;;5.97;2.63;;;;;;;;;;5132874;27;20038;-77
2023/10/25 14:21:01;;;;;;;;;;;;;;;;;;5134515;27;20038;-77
2023/10/25 14:23:27;;;;;;;7.78;2.70;;;;;;;;;;5132717;27;19968;-77
2023/10/25 14:25:53;;;;;;;;;;;;;;;;;;5135295;27;20043;-77
2023/10/25 14:28:21;;;;;;;3.60;2.25;;;;;;;;;;5137396;27;19923;-77
2023/10/25 14:30:47;;;;;;;5.32;2.33;;;;;;;;;;5138030;27;20455;-78
2023/10/25 14:33:14;;;;;;;;;;;;;;;;;;5121018;27;20122;-77
2023/10/25 14:35:40;;;;;;;4.93;2.40;;;;;;;;;;5135929;27;19941;-77
2023/10/25 14:38:06;;;;;;;3.80;2.63;;;;;;;;;;5135250;27;20499;-78
2023/10/25 14:40:36;;;;;;;5.40;2.67;;;;;;;;;;5117376;27;20053;-77
2023/10/25 14:43:03;;;;;;;3.05;2.13;;;;;;;;;;5153609;27;20054;-77
2023/10/25 14:45:29;;;;;;;3.58;2.22;;;;;;;;;;5116849;27;20147;-78
2023/10/25 14:47:55;;;;;;;;;;;;;;;;;;5155675;27;20526;-77
2023/10/25 14:50:21;;;;;;;11.07;3.17;;;;;;;;;;5136698;27;19967;-77
2023/10/25 14:52:47;;;;;;;7.55;2.95;;;;;;;;;;5134385;27;20117;-78
2023/10/25 14:55:13;;;;;;;;;;;;;;;;;;5135091;27;20114;-78
2023/10/25 14:57:40;;;;;;;6.38;2.88;;;;;;;;;;5134631;27;19919;-78
2023/10/25 15:00:09;;;;;;;6.55;2.78;;;;;;;;;;5136876;27;20115;-79
2023/10/25 15:02:35;;;;;;;8.77;3.67;;;;;;;;;;5131716;27;20042;-77
2023/10/25 15:05:01;;;;;;;5.60;3.47;;;;;;;;;;5132810;27;20097;-78
2023/10/25 15:07:27;;;;;;;4.88;2.83;;;;;;;;;;5119258;27;20411;-79
2023/10/25 15:09:53;;;;;;;;;;;;;;;;;;5153474;27;20035;-78
2023/10/25 15:12:20;;;;;;;6.72;3.80;;;;;;;;;;5117419;27;19919;-81
2023/10/25 15:14:46;;;;;;;8.32;3.15;;;;;;;;;;5131773;27;20043;-77
2023/10/25 15:17:12;;;;;;;7.22;3.55;;;;;;;;;;5126952;27;20125;-78
2023/10/25 15:19:38;;;;;;;;;;;;;;;;;;5129615;27;20066;-79
2023/10/25 15:22:04;;;;;;;10.10;4.15;;;;;;;;;;5130935;27;20026;-77
2023/10/25 15:24:30;;;;;;;9.70;3.92;;;;;;;;;;5117323;27;20066;-77
2023/10/25 15:26:57;;;;;;;6.18;3.75;;;;;;;;;;5128524;27;20385;-78
2023/10/25 15:29:23;;;;;;;7.40;4.10;;;;;;;;;;5125424;27;20081;-78
2023/10/25 15:31:49;;;;;;;8.00;3.97;;;;;;;;;;5125472;27;20042;-77
2023/10/25 15:34:16;;;;;;;9.00;4.20;;;;;;;;;;5133030;27;20123;-78
2023/10/25 15:36:45;;;;;;;8.32;4.28;;;;;;;;;;5128303;27;20062;-78
2023/10/25 15:39:11;;;;;;;7.47;4.07;;;;;;;;;;5126551;27;20137;-77
2023/10/25 15:41:37;;;;;;;;;;;;;;;;;;5106143;27;20051;-78
2023/10/25 15:44:05;;;;;;;9.15;3.97;;;;;;;;;;5122500;27;19931;-77
2023/10/25 15:46:31;;;;;;;8.57;4.35;;;;;;;;;;5126710;27;20051;-77
2023/10/25 15:48:57;;;;;;;;;;;;;;;;;;5110405;27;20043;-76
2023/10/25 15:51:23;;;;;;;7.53;3.85;;;;;;;;;;5125925;27;19919;-80
2023/10/25 15:53:49;;;;;;;;;;;;;;;;;;5125926;27;20496;-77
2023/10/25 15:56:15;;;;;;;11.82;4.88;;;;;;;;;;5131996;27;19923;-79
2023/10/25 15:58:42;;;;;;;8.48;4.30;;;;;;;;;;5116256;27;20130;-79
2023/10/25 16:01:09;;;;;;;8.43;4.57;;;;;;;;;;5101297;27;20039;-80